sensor_id;sensor_type;location;lat;lon;timestamp;P1;durP1;ratioP1;P2;durP2;ratioP2
6661;SDS011;3367;48.714;8.994;2023-06-22T00:02:18;11.60;;;8.80;;
6661;SDS011;3367;48.714;8.994;2023-06-22T00:04:47;9.87;;;8.87;;
6661;SDS011;3367;48.714;8.994;2023-06-22T00:07:13;12.67;;;9.80;;
6661;SDS011;3367;48.714;8.994;2023-06-22T00:09:40;13.63;;;9.30;;
6661;SDS011;3367;48.714;8.994;2023-06-22T00:12:08;17.13;;;9.10;;
6661;SDS011;3367;48.714;8.994;2023-06-22T00:14:34;10.30;;;8.90;;
6661;SDS011;3367;48.714;8.994;2023-06-22T00:17:01;9.47;;;8.30;;
6661;SDS011;3367;48.714;8.994;2023-06-22T00:19:28;17.30;;;10.00;;
6661;SDS011;3367;48.714;8.994;2023-06-22T00:21:57;12.37;;;9.90;;
6661;SDS011;3367;48.714;8.994;2023-06-22T00:24:25;12.00;;;9.50;;
6661;SDS011;3367;48.714;8.994;2023-06-22T00:26:52;12.43;;;9.70;;
6661;SDS011;3367;48.714;8.994;2023-06-22T00:29:19;10.53;;;9.17;;
6661;SDS011;3367;48.714;8.994;2023-06-22T00:31:46;10.40;;;9.03;;
6661;SDS011;3367;48.714;8.994;2023-06-22T00:34:16;14.67;;;8.90;;
6661;SDS011;3367;48.714;8.994;2023-06-22T00:36:42;11.27;;;9.67;;
6661;SDS011;3367;48.714;8.994;2023-06-22T00:39:11;11.50;;;8.50;;
6661;SDS011;3367;48.714;8.994;2023-06-22T00:41:39;13.93;;;10.20;;
6661;SDS011;3367;48.714;8.994;2023-06-22T00:44:05;15.10;;;8.87;;
6661;SDS011;3367;48.714;8.994;2023-06-22T00:46:33;12.60;;;9.37;;
6661;SDS011;3367;48.714;8.994;2023-06-22T00:49:00;10.67;;;9.03;;
6661;SDS011;3367;48.714;8.994;2023-06-22T00:51:30;13.20;;;9.40;;
6661;SDS011;3367;48.714;8.994;2023-06-22T00:53:57;17.23;;;8.87;;
6661;SDS011;3367;48.714;8.994;2023-06-22T00:56:26;10.60;;;9.50;;
6661;SDS011;3367;48.714;8.994;2023-06-22T00:58:55;10.67;;;9.30;;
6661;SDS011;3367;48.714;8.994;2023-06-22T01:01:22;9.87;;;8.87;;
6661;SDS011;3367;48.714;8.994;2023-06-22T01:03:49;13.80;;;9.00;;
6661;SDS011;3367;48.714;8.994;2023-06-22T01:06:19;9.87;;;8.50;;
6661;SDS011;3367;48.714;8.994;2023-06-22T01:08:53;12.50;;;9.80;;
6661;SDS011;3367;48.714;8.994;2023-06-22T01:11:30;15.37;;;9.63;;
6661;SDS011;3367;48.714;8.994;2023-06-22T01:14:04;13.20;;;9.20;;
6661;SDS011;3367;48.714;8.994;2023-06-22T01:16:36;10.13;;;8.77;;
6661;SDS011;3367;48.714;8.994;2023-06-22T01:19:09;12.20;;;9.00;;
6661;SDS011;3367;48.714;8.994;2023-06-22T01:21:51;12.30;;;8.60;;
6661;SDS011;3367;48.714;8.994;2023-06-22T01:24:22;8.87;;;7.97;;
6661;SDS011;3367;48.714;8.994;2023-06-22T01:26:57;11.97;;;9.03;;
6661;SDS011;3367;48.714;8.994;2023-06-22T01:29:36;13.70;;;9.70;;
6661;SDS011;3367;48.714;8.994;2023-06-22T01:32:05;17.30;;;9.90;;
6661;SDS011;3367;48.714;8.994;2023-06-22T01:34:33;12.67;;;9.37;;
6661;SDS011;3367;48.714;8.994;2023-06-22T01:37:01;11.27;;;8.87;;
6661;SDS011;3367;48.714;8.994;2023-06-22T01:39:29;11.83;;;8.53;;
6661;SDS011;3367;48.714;8.994;2023-06-22T01:41:57;10.80;;;9.27;;
6661;SDS011;3367;48.714;8.994;2023-06-22T01:44:25;11.03;;;9.10;;
6661;SDS011;3367;48.714;8.994;2023-06-22T01:46:55;10.83;;;8.80;;
6661;SDS011;3367;48.714;8.994;2023-06-22T01:49:22;10.73;;;8.93;;
6661;SDS011;3367;48.714;8.994;2023-06-22T01:51:49;14.33;;;10.30;;
6661;SDS011;3367;48.714;8.994;2023-06-22T01:54:16;13.03;;;9.57;;
6661;SDS011;3367;48.714;8.994;2023-06-22T01:56:43;11.60;;;8.73;;
6661;SDS011;3367;48.714;8.994;2023-06-22T01:59:11;15.07;;;9.20;;
6661;SDS011;3367;48.714;8.994;2023-06-22T02:01:43;11.97;;;10.17;;
6661;SDS011;3367;48.714;8.994;2023-06-22T02:04:19;11.03;;;9.03;;
6661;SDS011;3367;48.714;8.994;2023-06-22T02:06:50;11.30;;;9.30;;
6661;SDS011;3367;48.714;8.994;2023-06-22T02:09:21;13.87;;;9.30;;
6661;SDS011;3367;48.714;8.994;2023-06-22T02:11:50;11.23;;;9.50;;
6661;SDS011;3367;48.714;8.994;2023-06-22T02:14:20;10.40;;;9.33;;
6661;SDS011;3367;48.714;8.994;2023-06-22T02:16:48;13.33;;;10.13;;
6661;SDS011;3367;48.714;8.994;2023-06-22T02:19:18;11.73;;;9.63;;
6661;SDS011;3367;48.714;8.994;2023-06-22T02:21:49;11.60;;;9.40;;
6661;SDS011;3367;48.714;8.994;2023-06-22T02:24:16;14.43;;;10.00;;
6661;SDS011;3367;48.714;8.994;2023-06-22T02:26:43;17.80;;;10.10;;
6661;SDS011;3367;48.714;8.994;2023-06-22T02:29:10;12.23;;;9.70;;
6661;SDS011;3367;48.714;8.994;2023-06-22T02:31:37;18.13;;;9.60;;
6661;SDS011;3367;48.714;8.994;2023-06-22T02:34:04;12.67;;;9.00;;
6661;SDS011;3367;48.714;8.994;2023-06-22T02:36:33;10.20;;;8.43;;
6661;SDS011;3367;48.714;8.994;2023-06-22T02:39:00;10.93;;;9.10;;
6661;SDS011;3367;48.714;8.994;2023-06-22T02:41:28;9.60;;;8.53;;
6661;SDS011;3367;48.714;8.994;2023-06-22T02:43:55;12.37;;;10.73;;
6661;SDS011;3367;48.714;8.994;2023-06-22T02:46:22;13.20;;;10.50;;
6661;SDS011;3367;48.714;8.994;2023-06-22T02:48:49;13.60;;;9.53;;
6661;SDS011;3367;48.714;8.994;2023-06-22T02:51:16;10.80;;;9.70;;
6661;SDS011;3367;48.714;8.994;2023-06-22T02:53:44;13.80;;;9.93;;
6661;SDS011;3367;48.714;8.994;2023-06-22T02:56:12;10.70;;;9.60;;
6661;SDS011;3367;48.714;8.994;2023-06-22T02:58:39;13.60;;;9.83;;
6661;SDS011;3367;48.714;8.994;2023-06-22T03:01:05;15.43;;;10.20;;
6661;SDS011;3367;48.714;8.994;2023-06-22T03:03:32;10.43;;;9.03;;
6661;SDS011;3367;48.714;8.994;2023-06-22T03:05:59;14.03;;;10.10;;
6661;SDS011;3367;48.714;8.994;2023-06-22T03:08:27;13.87;;;9.07;;
6661;SDS011;3367;48.714;8.994;2023-06-22T03:10:56;11.50;;;9.60;;
6661;SDS011;3367;48.714;8.994;2023-06-22T03:13:23;12.50;;;9.10;;
6661;SDS011;3367;48.714;8.994;2023-06-22T03:15:50;13.60;;;8.70;;
6661;SDS011;3367;48.714;8.994;2023-06-22T03:18:17;14.67;;;9.30;;
6661;SDS011;3367;48.714;8.994;2023-06-22T03:20:44;13.77;;;10.10;;
6661;SDS011;3367;48.714;8.994;2023-06-22T03:23:11;13.67;;;9.73;;
6661;SDS011;3367;48.714;8.994;2023-06-22T03:25:38;11.60;;;10.20;;
6661;SDS011;3367;48.714;8.994;2023-06-22T03:28:06;13.73;;;11.37;;
6661;SDS011;3367;48.714;8.994;2023-06-22T03:30:33;14.70;;;10.87;;
6661;SDS011;3367;48.714;8.994;2023-06-22T03:33:00;13.73;;;11.33;;
6661;SDS011;3367;48.714;8.994;2023-06-22T03:35:27;15.10;;;9.93;;
6661;SDS011;3367;48.714;8.994;2023-06-22T03:37:54;13.30;;;10.10;;
6661;SDS011;3367;48.714;8.994;2023-06-22T03:40:21;15.77;;;10.80;;
6661;SDS011;3367;48.714;8.994;2023-06-22T03:42:48;13.60;;;11.03;;
6661;SDS011;3367;48.714;8.994;2023-06-22T03:45:16;13.60;;;11.27;;
6661;SDS011;3367;48.714;8.994;2023-06-22T03:47:43;14.63;;;11.40;;
6661;SDS011;3367;48.714;8.994;2023-06-22T03:50:10;13.43;;;11.10;;
6661;SDS011;3367;48.714;8.994;2023-06-22T03:52:37;15.60;;;11.30;;
6661;SDS011;3367;48.714;8.994;2023-06-22T03:55:04;11.70;;;10.00;;
6661;SDS011;3367;48.714;8.994;2023-06-22T03:57:32;15.43;;;11.10;;
6661;SDS011;3367;48.714;8.994;2023-06-22T03:59:59;16.60;;;11.73;;
6661;SDS011;3367;48.714;8.994;2023-06-22T04:02:29;14.43;;;9.87;;
6661;SDS011;3367;48.714;8.994;2023-06-22T04:04:56;11.80;;;10.30;;
6661;SDS011;3367;48.714;8.994;2023-06-22T04:07:22;13.10;;;9.27;;
6661;SDS011;3367;48.714;8.994;2023-06-22T04:09:50;15.40;;;10.73;;
6661;SDS011;3367;48.714;8.994;2023-06-22T04:12:16;12.40;;;10.53;;
6661;SDS011;3367;48.714;8.994;2023-06-22T04:14:43;13.23;;;9.77;;
6661;SDS011;3367;48.714;8.994;2023-06-22T04:17:10;13.17;;;10.07;;
6661;SDS011;3367;48.714;8.994;2023-06-22T04:19:40;14.60;;;10.90;;
6661;SDS011;3367;48.714;8.994;2023-06-22T04:22:07;13.27;;;10.73;;
6661;SDS011;3367;48.714;8.994;2023-06-22T04:24:35;13.17;;;10.10;;
6661;SDS011;3367;48.714;8.994;2023-06-22T04:27:02;12.30;;;9.40;;
6661;SDS011;3367;48.714;8.994;2023-06-22T04:29:29;12.77;;;9.50;;
6661;SDS011;3367;48.714;8.994;2023-06-22T04:31:57;10.70;;;9.60;;
6661;SDS011;3367;48.714;8.994;2023-06-22T04:34:28;12.43;;;10.37;;
6661;SDS011;3367;48.714;8.994;2023-06-22T04:36:56;10.93;;;9.20;;
6661;SDS011;3367;48.714;8.994;2023-06-22T04:39:23;11.03;;;9.70;;
6661;SDS011;3367;48.714;8.994;2023-06-22T04:41:52;14.23;;;9.90;;
6661;SDS011;3367;48.714;8.994;2023-06-22T04:44:20;13.30;;;10.00;;
6661;SDS011;3367;48.714;8.994;2023-06-22T04:46:50;11.03;;;9.10;;
6661;SDS011;3367;48.714;8.994;2023-06-22T04:49:19;15.53;;;10.00;;
6661;SDS011;3367;48.714;8.994;2023-06-22T04:51:47;12.40;;;9.57;;
6661;SDS011;3367;48.714;8.994;2023-06-22T04:54:18;12.30;;;10.37;;
6661;SDS011;3367;48.714;8.994;2023-06-22T04:56:45;11.20;;;9.77;;
6661;SDS011;3367;48.714;8.994;2023-06-22T04:59:11;15.57;;;9.30;;
6661;SDS011;3367;48.714;8.994;2023-06-22T05:01:39;12.20;;;9.52;;
6661;SDS011;3367;48.714;8.994;2023-06-22T05:04:06;11.63;;;9.50;;
6661;SDS011;3367;48.714;8.994;2023-06-22T05:06:34;13.07;;;9.30;;
6661;SDS011;3367;48.714;8.994;2023-06-22T05:09:00;9.60;;;8.60;;
6661;SDS011;3367;48.714;8.994;2023-06-22T05:11:29;10.83;;;8.67;;
6661;SDS011;3367;48.714;8.994;2023-06-22T05:13:56;8.50;;;7.60;;
6661;SDS011;3367;48.714;8.994;2023-06-22T05:16:23;11.57;;;8.40;;
6661;SDS011;3367;48.714;8.994;2023-06-22T05:18:51;10.70;;;8.00;;
6661;SDS011;3367;48.714;8.994;2023-06-22T05:21:21;14.37;;;9.07;;
6661;SDS011;3367;48.714;8.994;2023-06-22T05:23:49;12.00;;;8.03;;
6661;SDS011;3367;48.714;8.994;2023-06-22T05:26:16;8.47;;;6.70;;
6661;SDS011;3367;48.714;8.994;2023-06-22T05:28:44;8.63;;;6.73;;
6661;SDS011;3367;48.714;8.994;2023-06-22T05:31:12;8.70;;;6.63;;
6661;SDS011;3367;48.714;8.994;2023-06-22T05:33:39;8.83;;;6.57;;
6661;SDS011;3367;48.714;8.994;2023-06-22T05:36:06;9.13;;;6.27;;
6661;SDS011;3367;48.714;8.994;2023-06-22T05:38:33;9.60;;;6.63;;
6661;SDS011;3367;48.714;8.994;2023-06-22T05:41:00;9.53;;;6.57;;
6661;SDS011;3367;48.714;8.994;2023-06-22T05:43:27;9.07;;;5.93;;
6661;SDS011;3367;48.714;8.994;2023-06-22T05:45:55;13.17;;;6.47;;
6661;SDS011;3367;48.714;8.994;2023-06-22T05:48:23;7.17;;;6.47;;
6661;SDS011;3367;48.714;8.994;2023-06-22T05:50:50;7.23;;;6.13;;
6661;SDS011;3367;48.714;8.994;2023-06-22T05:53:17;6.90;;;6.20;;
6661;SDS011;3367;48.714;8.994;2023-06-22T05:55:44;8.90;;;6.20;;
6661;SDS011;3367;48.714;8.994;2023-06-22T05:58:10;6.47;;;5.83;;
6661;SDS011;3367;48.714;8.994;2023-06-22T06:00:38;6.77;;;6.03;;
6661;SDS011;3367;48.714;8.994;2023-06-22T06:03:06;11.17;;;6.37;;
6661;SDS011;3367;48.714;8.994;2023-06-22T06:05:34;6.37;;;5.67;;
6661;SDS011;3367;48.714;8.994;2023-06-22T06:08:02;6.20;;;5.60;;
6661;SDS011;3367;48.714;8.994;2023-06-22T06:10:31;8.70;;;6.20;;
6661;SDS011;3367;48.714;8.994;2023-06-22T06:12:58;7.70;;;5.53;;
6661;SDS011;3367;48.714;8.994;2023-06-22T06:15:27;12.20;;;6.50;;
6661;SDS011;3367;48.714;8.994;2023-06-22T06:17:54;7.97;;;6.57;;
6661;SDS011;3367;48.714;8.994;2023-06-22T06:20:22;6.03;;;5.07;;
6661;SDS011;3367;48.714;8.994;2023-06-22T06:22:50;8.53;;;5.50;;
6661;SDS011;3367;48.714;8.994;2023-06-22T06:25:17;7.07;;;5.63;;
6661;SDS011;3367;48.714;8.994;2023-06-22T06:27:45;9.00;;;5.70;;
6661;SDS011;3367;48.714;8.994;2023-06-22T06:30:13;7.90;;;5.60;;
6661;SDS011;3367;48.714;8.994;2023-06-22T06:32:41;12.07;;;6.53;;
6661;SDS011;3367;48.714;8.994;2023-06-22T06:35:10;6.40;;;5.07;;
6661;SDS011;3367;48.714;8.994;2023-06-22T06:37:40;9.30;;;5.90;;
6661;SDS011;3367;48.714;8.994;2023-06-22T06:40:09;8.70;;;5.60;;
6661;SDS011;3367;48.714;8.994;2023-06-22T06:42:37;6.30;;;5.70;;
6661;SDS011;3367;48.714;8.994;2023-06-22T06:45:06;6.77;;;5.80;;
6661;SDS011;3367;48.714;8.994;2023-06-22T06:47:34;5.57;;;5.00;;
6661;SDS011;3367;48.714;8.994;2023-06-22T06:50:01;5.93;;;5.33;;
6661;SDS011;3367;48.714;8.994;2023-06-22T06:52:28;7.77;;;5.53;;
6661;SDS011;3367;48.714;8.994;2023-06-22T06:54:56;8.50;;;5.00;;
6661;SDS011;3367;48.714;8.994;2023-06-22T06:57:23;7.93;;;5.40;;
6661;SDS011;3367;48.714;8.994;2023-06-22T06:59:53;7.67;;;5.10;;
6661;SDS011;3367;48.714;8.994;2023-06-22T07:02:21;9.93;;;4.90;;
6661;SDS011;3367;48.714;8.994;2023-06-22T07:04:48;10.80;;;5.03;;
6661;SDS011;3367;48.714;8.994;2023-06-22T07:07:16;12.40;;;5.00;;
6661;SDS011;3367;48.714;8.994;2023-06-22T07:09:43;6.30;;;4.40;;
6661;SDS011;3367;48.714;8.994;2023-06-22T07:12:11;8.80;;;4.90;;
6661;SDS011;3367;48.714;8.994;2023-06-22T07:14:38;8.03;;;4.97;;
6661;SDS011;3367;48.714;8.994;2023-06-22T07:17:04;5.33;;;4.83;;
6661;SDS011;3367;48.714;8.994;2023-06-22T07:19:32;10.23;;;5.20;;
6661;SDS011;3367;48.714;8.994;2023-06-22T07:21:59;6.80;;;5.30;;
6661;SDS011;3367;48.714;8.994;2023-06-22T07:24:26;7.70;;;5.60;;
6661;SDS011;3367;48.714;8.994;2023-06-22T07:26:53;6.73;;;5.23;;
6661;SDS011;3367;48.714;8.994;2023-06-22T07:29:21;6.80;;;5.40;;
6661;SDS011;3367;48.714;8.994;2023-06-22T07:31:49;7.80;;;5.10;;
6661;SDS011;3367;48.714;8.994;2023-06-22T07:34:17;8.07;;;5.10;;
6661;SDS011;3367;48.714;8.994;2023-06-22T07:36:44;6.50;;;5.07;;
6661;SDS011;3367;48.714;8.994;2023-06-22T07:39:11;8.50;;;5.20;;
6661;SDS011;3367;48.714;8.994;2023-06-22T07:41:38;5.67;;;4.47;;
6661;SDS011;3367;48.714;8.994;2023-06-22T07:44:05;7.93;;;4.83;;
6661;SDS011;3367;48.714;8.994;2023-06-22T07:46:35;9.17;;;4.90;;
6661;SDS011;3367;48.714;8.994;2023-06-22T07:49:02;9.20;;;5.40;;
6661;SDS011;3367;48.714;8.994;2023-06-22T07:51:28;7.57;;;5.97;;
6661;SDS011;3367;48.714;8.994;2023-06-22T07:53:55;9.37;;;5.57;;
6661;SDS011;3367;48.714;8.994;2023-06-22T07:56:22;9.80;;;5.00;;
6661;SDS011;3367;48.714;8.994;2023-06-22T07:58:49;7.60;;;4.80;;
6661;SDS011;3367;48.714;8.994;2023-06-22T08:01:16;7.30;;;5.57;;
6661;SDS011;3367;48.714;8.994;2023-06-22T08:03:47;11.33;;;5.07;;
6661;SDS011;3367;48.714;8.994;2023-06-22T08:06:14;6.37;;;5.10;;
6661;SDS011;3367;48.714;8.994;2023-06-22T08:08:41;9.70;;;4.77;;
6661;SDS011;3367;48.714;8.994;2023-06-22T08:11:08;9.47;;;5.77;;
6661;SDS011;3367;48.714;8.994;2023-06-22T08:13:35;11.27;;;5.83;;
6661;SDS011;3367;48.714;8.994;2023-06-22T08:16:02;8.67;;;5.47;;
6661;SDS011;3367;48.714;8.994;2023-06-22T08:18:29;9.60;;;5.33;;
6661;SDS011;3367;48.714;8.994;2023-06-22T08:20:58;8.07;;;5.40;;
6661;SDS011;3367;48.714;8.994;2023-06-22T08:23:24;9.30;;;5.60;;
6661;SDS011;3367;48.714;8.994;2023-06-22T08:25:51;12.83;;;5.50;;
6661;SDS011;3367;48.714;8.994;2023-06-22T08:28:18;8.13;;;5.60;;
6661;SDS011;3367;48.714;8.994;2023-06-22T08:30:45;12.60;;;5.07;;
6661;SDS011;3367;48.714;8.994;2023-06-22T08:33:12;13.13;;;5.90;;
6661;SDS011;3367;48.714;8.994;2023-06-22T08:35:39;10.97;;;5.60;;
6661;SDS011;3367;48.714;8.994;2023-06-22T08:38:07;10.43;;;6.20;;
6661;SDS011;3367;48.714;8.994;2023-06-22T08:40:34;8.57;;;6.00;;
6661;SDS011;3367;48.714;8.994;2023-06-22T08:43:01;13.67;;;6.50;;
6661;SDS011;3367;48.714;8.994;2023-06-22T08:45:27;7.90;;;6.33;;
6661;SDS011;3367;48.714;8.994;2023-06-22T08:47:54;14.07;;;5.63;;
6661;SDS011;3367;48.714;8.994;2023-06-22T08:50:21;15.67;;;5.80;;
6661;SDS011;3367;48.714;8.994;2023-06-22T08:52:48;10.57;;;6.23;;
6661;SDS011;3367;48.714;8.994;2023-06-22T08:55:16;10.77;;;6.07;;
6661;SDS011;3367;48.714;8.994;2023-06-22T08:57:43;11.47;;;5.77;;
6661;SDS011;3367;48.714;8.994;2023-06-22T09:00:10;9.17;;;5.87;;
6661;SDS011;3367;48.714;8.994;2023-06-22T09:02:42;15.27;;;6.47;;
6661;SDS011;3367;48.714;8.994;2023-06-22T09:05:09;9.77;;;5.83;;
6661;SDS011;3367;48.714;8.994;2023-06-22T09:07:36;11.10;;;5.40;;
6661;SDS011;3367;48.714;8.994;2023-06-22T09:10:03;7.50;;;6.47;;
6661;SDS011;3367;48.714;8.994;2023-06-22T09:12:32;9.47;;;5.33;;
6661;SDS011;3367;48.714;8.994;2023-06-22T09:14:59;13.67;;;6.33;;
6661;SDS011;3367;48.714;8.994;2023-06-22T09:17:27;12.40;;;6.57;;
6661;SDS011;3367;48.714;8.994;2023-06-22T09:19:54;10.53;;;6.20;;
6661;SDS011;3367;48.714;8.994;2023-06-22T09:22:21;8.40;;;5.93;;
6661;SDS011;3367;48.714;8.994;2023-06-22T09:24:48;15.00;;;6.80;;
6661;SDS011;3367;48.714;8.994;2023-06-22T09:27:14;6.90;;;5.33;;
6661;SDS011;3367;48.714;8.994;2023-06-22T09:29:43;11.83;;;6.57;;
6661;SDS011;3367;48.714;8.994;2023-06-22T09:32:10;7.77;;;6.93;;
6661;SDS011;3367;48.714;8.994;2023-06-22T09:34:36;10.77;;;6.60;;
6661;SDS011;3367;48.714;8.994;2023-06-22T09:37:04;7.30;;;5.40;;
6661;SDS011;3367;48.714;8.994;2023-06-22T09:39:31;10.80;;;6.17;;
6661;SDS011;3367;48.714;8.994;2023-06-22T09:41:58;9.33;;;6.27;;
6661;SDS011;3367;48.714;8.994;2023-06-22T09:44:25;11.73;;;6.07;;
6661;SDS011;3367;48.714;8.994;2023-06-22T09:46:53;8.33;;;5.90;;
6661;SDS011;3367;48.714;8.994;2023-06-22T09:49:20;13.77;;;6.60;;
6661;SDS011;3367;48.714;8.994;2023-06-22T09:51:47;16.10;;;6.83;;
6661;SDS011;3367;48.714;8.994;2023-06-22T09:54:14;8.27;;;5.63;;
6661;SDS011;3367;48.714;8.994;2023-06-22T09:56:41;11.47;;;6.40;;
6661;SDS011;3367;48.714;8.994;2023-06-22T09:59:08;13.00;;;6.03;;
6661;SDS011;3367;48.714;8.994;2023-06-22T10:01:35;9.93;;;5.73;;
6661;SDS011;3367;48.714;8.994;2023-06-22T10:04:03;12.27;;;6.40;;
6661;SDS011;3367;48.714;8.994;2023-06-22T10:06:30;9.20;;;6.37;;
6661;SDS011;3367;48.714;8.994;2023-06-22T10:08:57;9.50;;;5.70;;
6661;SDS011;3367;48.714;8.994;2023-06-22T10:11:24;11.97;;;6.17;;
6661;SDS011;3367;48.714;8.994;2023-06-22T10:13:54;15.07;;;6.33;;
6661;SDS011;3367;48.714;8.994;2023-06-22T10:16:21;16.77;;;6.47;;
6661;SDS011;3367;48.714;8.994;2023-06-22T10:18:51;13.63;;;6.30;;
6661;SDS011;3367;48.714;8.994;2023-06-22T10:21:20;11.17;;;6.53;;
6661;SDS011;3367;48.714;8.994;2023-06-22T10:23:46;9.83;;;6.20;;
6661;SDS011;3367;48.714;8.994;2023-06-22T10:26:13;12.90;;;6.20;;
6661;SDS011;3367;48.714;8.994;2023-06-22T10:28:40;8.00;;;5.80;;
6661;SDS011;3367;48.714;8.994;2023-06-22T10:31:07;6.20;;;5.60;;
6661;SDS011;3367;48.714;8.994;2023-06-22T10:33:34;17.40;;;6.90;;
6661;SDS011;3367;48.714;8.994;2023-06-22T10:36:01;16.23;;;6.97;;
6661;SDS011;3367;48.714;8.994;2023-06-22T10:38:29;13.50;;;6.50;;
6661;SDS011;3367;48.714;8.994;2023-06-22T10:40:56;13.63;;;6.10;;
6661;SDS011;3367;48.714;8.994;2023-06-22T10:43:22;12.83;;;5.77;;
6661;SDS011;3367;48.714;8.994;2023-06-22T10:45:49;13.97;;;6.53;;
6661;SDS011;3367;48.714;8.994;2023-06-22T10:48:16;14.77;;;6.77;;
6661;SDS011;3367;48.714;8.994;2023-06-22T10:50:43;9.80;;;5.80;;
6661;SDS011;3367;48.714;8.994;2023-06-22T10:53:09;11.13;;;5.77;;
6661;SDS011;3367;48.714;8.994;2023-06-22T10:55:38;10.03;;;6.57;;
6661;SDS011;3367;48.714;8.994;2023-06-22T10:58:04;11.07;;;6.30;;
6661;SDS011;3367;48.714;8.994;2023-06-22T11:00:31;11.87;;;6.07;;
6661;SDS011;3367;48.714;8.994;2023-06-22T11:02:58;13.83;;;5.77;;
6661;SDS011;3367;48.714;8.994;2023-06-22T11:05:25;7.40;;;5.30;;
6661;SDS011;3367;48.714;8.994;2023-06-22T11:07:52;13.47;;;6.70;;
6661;SDS011;3367;48.714;8.994;2023-06-22T11:10:19;11.20;;;6.47;;
6661;SDS011;3367;48.714;8.994;2023-06-22T11:12:47;14.77;;;6.10;;
6661;SDS011;3367;48.714;8.994;2023-06-22T11:15:13;23.83;;;6.53;;
6661;SDS011;3367;48.714;8.994;2023-06-22T11:17:40;14.30;;;6.20;;
6661;SDS011;3367;48.714;8.994;2023-06-22T11:20:08;15.90;;;6.10;;
6661;SDS011;3367;48.714;8.994;2023-06-22T11:22:36;11.10;;;6.73;;
6661;SDS011;3367;48.714;8.994;2023-06-22T11:25:04;9.80;;;5.60;;
6661;SDS011;3367;48.714;8.994;2023-06-22T11:27:32;11.07;;;6.20;;
6661;SDS011;3367;48.714;8.994;2023-06-22T11:30:00;10.27;;;5.57;;
6661;SDS011;3367;48.714;8.994;2023-06-22T11:32:28;12.47;;;6.00;;
6661;SDS011;3367;48.714;8.994;2023-06-22T11:34:55;9.60;;;5.60;;
6661;SDS011;3367;48.714;8.994;2023-06-22T11:37:21;8.60;;;7.13;;
6661;SDS011;3367;48.714;8.994;2023-06-22T11:39:48;8.43;;;6.03;;
6661;SDS011;3367;48.714;8.994;2023-06-22T11:42:15;12.23;;;5.77;;
6661;SDS011;3367;48.714;8.994;2023-06-22T11:44:42;12.00;;;6.20;;
6661;SDS011;3367;48.714;8.994;2023-06-22T11:47:11;10.10;;;6.67;;
6661;SDS011;3367;48.714;8.994;2023-06-22T11:49:38;9.53;;;6.00;;
6661;SDS011;3367;48.714;8.994;2023-06-22T11:52:05;14.33;;;6.90;;
6661;SDS011;3367;48.714;8.994;2023-06-22T11:54:32;8.73;;;6.60;;
6661;SDS011;3367;48.714;8.994;2023-06-22T11:56:59;10.27;;;6.50;;
6661;SDS011;3367;48.714;8.994;2023-06-22T11:59:26;17.87;;;7.10;;
6661;SDS011;3367;48.714;8.994;2023-06-22T12:01:53;12.43;;;6.80;;
6661;SDS011;3367;48.714;8.994;2023-06-22T12:04:21;10.10;;;5.87;;
6661;SDS011;3367;48.714;8.994;2023-06-22T12:06:48;18.77;;;6.37;;
6661;SDS011;3367;48.714;8.994;2023-06-22T12:09:15;9.27;;;6.40;;
6661;SDS011;3367;48.714;8.994;2023-06-22T12:11:42;8.67;;;6.53;;
6661;SDS011;3367;48.714;8.994;2023-06-22T12:14:09;9.20;;;7.00;;
6661;SDS011;3367;48.714;8.994;2023-06-22T12:16:36;8.90;;;6.17;;
6661;SDS011;3367;48.714;8.994;2023-06-22T12:19:02;13.67;;;6.30;;
6661;SDS011;3367;48.714;8.994;2023-06-22T12:21:31;9.73;;;6.53;;
6661;SDS011;3367;48.714;8.994;2023-06-22T12:23:57;9.87;;;6.77;;
6661;SDS011;3367;48.714;8.994;2023-06-22T12:26:24;14.90;;;6.40;;
6661;SDS011;3367;48.714;8.994;2023-06-22T12:28:51;11.23;;;7.00;;
6661;SDS011;3367;48.714;8.994;2023-06-22T12:31:18;15.50;;;6.80;;
6661;SDS011;3367;48.714;8.994;2023-06-22T12:33:45;11.80;;;6.97;;
6661;SDS011;3367;48.714;8.994;2023-06-22T12:36:11;13.70;;;7.00;;
6661;SDS011;3367;48.714;8.994;2023-06-22T12:38:40;14.07;;;7.10;;
6661;SDS011;3367;48.714;8.994;2023-06-22T12:41:06;11.47;;;6.73;;
6661;SDS011;3367;48.714;8.994;2023-06-22T12:43:33;14.30;;;6.77;;
6661;SDS011;3367;48.714;8.994;2023-06-22T12:46:00;14.97;;;7.13;;
6661;SDS011;3367;48.714;8.994;2023-06-22T12:48:27;12.60;;;6.70;;
6661;SDS011;3367;48.714;8.994;2023-06-22T12:50:54;12.43;;;6.70;;
6661;SDS011;3367;48.714;8.994;2023-06-22T12:53:22;17.60;;;7.27;;
6661;SDS011;3367;48.714;8.994;2023-06-22T12:55:54;13.00;;;6.53;;
6661;SDS011;3367;48.714;8.994;2023-06-22T12:58:20;13.07;;;7.20;;
6661;SDS011;3367;48.714;8.994;2023-06-22T13:00:48;10.20;;;7.20;;
6661;SDS011;3367;48.714;8.994;2023-06-22T13:03:15;17.10;;;7.33;;
6661;SDS011;3367;48.714;8.994;2023-06-22T13:05:42;10.10;;;6.60;;
6661;SDS011;3367;48.714;8.994;2023-06-22T13:08:08;14.80;;;7.00;;
6661;SDS011;3367;48.714;8.994;2023-06-22T13:10:36;15.00;;;7.20;;
6661;SDS011;3367;48.714;8.994;2023-06-22T13:13:04;17.23;;;7.37;;
6661;SDS011;3367;48.714;8.994;2023-06-22T13:15:31;11.03;;;6.97;;
6661;SDS011;3367;48.714;8.994;2023-06-22T13:17:58;11.60;;;6.10;;
6661;SDS011;3367;48.714;8.994;2023-06-22T13:20:25;19.47;;;7.07;;
6661;SDS011;3367;48.714;8.994;2023-06-22T13:22:53;12.27;;;7.30;;
6661;SDS011;3367;48.714;8.994;2023-06-22T13:25:21;15.33;;;6.20;;
6661;SDS011;3367;48.714;8.994;2023-06-22T13:27:51;12.27;;;6.53;;
6661;SDS011;3367;48.714;8.994;2023-06-22T13:30:19;11.27;;;6.50;;
6661;SDS011;3367;48.714;8.994;2023-06-22T13:32:46;14.13;;;6.90;;
6661;SDS011;3367;48.714;8.994;2023-06-22T13:35:13;23.40;;;6.57;;
6661;SDS011;3367;48.714;8.994;2023-06-22T13:37:40;10.80;;;6.10;;
6661;SDS011;3367;48.714;8.994;2023-06-22T13:40:07;14.63;;;6.33;;
6661;SDS011;3367;48.714;8.994;2023-06-22T13:42:35;9.20;;;6.37;;
6661;SDS011;3367;48.714;8.994;2023-06-22T13:45:02;8.40;;;5.70;;
6661;SDS011;3367;48.714;8.994;2023-06-22T13:47:31;17.90;;;6.70;;
6661;SDS011;3367;48.714;8.994;2023-06-22T13:49:58;14.70;;;6.17;;
6661;SDS011;3367;48.714;8.994;2023-06-22T13:52:25;13.07;;;6.40;;
6661;SDS011;3367;48.714;8.994;2023-06-22T13:54:52;11.07;;;6.10;;
6661;SDS011;3367;48.714;8.994;2023-06-22T13:57:19;23.17;;;7.13;;
6661;SDS011;3367;48.714;8.994;2023-06-22T13:59:46;13.00;;;6.47;;
6661;SDS011;3367;48.714;8.994;2023-06-22T14:02:13;17.37;;;6.20;;
6661;SDS011;3367;48.714;8.994;2023-06-22T14:04:41;15.47;;;6.10;;
6661;SDS011;3367;48.714;8.994;2023-06-22T14:07:08;14.80;;;6.20;;
6661;SDS011;3367;48.714;8.994;2023-06-22T14:09:35;13.50;;;6.50;;
6661;SDS011;3367;48.714;8.994;2023-06-22T14:12:05;12.77;;;6.50;;
6661;SDS011;3367;48.714;8.994;2023-06-22T14:14:32;12.57;;;5.83;;
6661;SDS011;3367;48.714;8.994;2023-06-22T14:17:00;9.97;;;6.43;;
6661;SDS011;3367;48.714;8.994;2023-06-22T14:19:26;12.63;;;6.00;;
6661;SDS011;3367;48.714;8.994;2023-06-22T14:21:55;16.83;;;5.60;;
6661;SDS011;3367;48.714;8.994;2023-06-22T14:24:22;12.30;;;5.17;;
6661;SDS011;3367;48.714;8.994;2023-06-22T14:26:49;12.93;;;5.47;;
6661;SDS011;3367;48.714;8.994;2023-06-22T14:29:16;16.07;;;4.70;;
6661;SDS011;3367;48.714;8.994;2023-06-22T14:31:44;13.73;;;4.23;;
6661;SDS011;3367;48.714;8.994;2023-06-22T14:34:12;9.53;;;3.97;;
6661;SDS011;3367;48.714;8.994;2023-06-22T14:36:39;10.30;;;4.03;;
6661;SDS011;3367;48.714;8.994;2023-06-22T14:39:07;9.50;;;3.93;;
6661;SDS011;3367;48.714;8.994;2023-06-22T14:41:34;17.17;;;4.57;;
6661;SDS011;3367;48.714;8.994;2023-06-22T14:44:01;12.00;;;3.80;;
6661;SDS011;3367;48.714;8.994;2023-06-22T14:46:28;15.93;;;4.50;;
6661;SDS011;3367;48.714;8.994;2023-06-22T14:48:55;12.10;;;4.10;;
6661;SDS011;3367;48.714;8.994;2023-06-22T14:51:22;15.00;;;4.23;;
6661;SDS011;3367;48.714;8.994;2023-06-22T14:53:49;12.93;;;3.67;;
6661;SDS011;3367;48.714;8.994;2023-06-22T14:56:17;13.57;;;3.73;;
6661;SDS011;3367;48.714;8.994;2023-06-22T14:58:44;9.40;;;3.70;;
6661;SDS011;3367;48.714;8.994;2023-06-22T15:01:10;8.67;;;3.00;;
6661;SDS011;3367;48.714;8.994;2023-06-22T15:03:38;11.07;;;4.13;;
6661;SDS011;3367;48.714;8.994;2023-06-22T15:06:04;7.67;;;3.77;;
6661;SDS011;3367;48.714;8.994;2023-06-22T15:08:32;8.10;;;3.63;;